Time,TemperatureF,DewpointF,PressureIn,WindDirection,WindDirectionDegrees,WindSpeedMPH,WindSpeedGustMPH,Humidity,HourlyPrecipIn,Conditions,Clouds,dailyrainin,SolarRadiationWatts/m^2,SoftwareType,DateUTC
2013-07-19 00:01:00,68.2,39.0,29.89,WSW,244,3.0,-999.0,34,-99.99,,,0.00,0,weatherlink.com 1.10,2013-07-19 07:01:00,
2013-07-19 00:16:00,67.8,39.0,29.89,West,266,4.0,-999.0,35,-99.99,,,0.00,0,weatherlink.com 1.10,2013-07-19 07:16:00,
2013-07-19 00:31:00,67.6,38.0,29.88,WSW,239,6.0,-999.0,34,-99.99,,,0.00,0,weatherlink.com 1.10,2013-07-19 07:31:00,
2013-07-19 00:46:00,67.4,39.0,29.88,SW,231,5.0,-999.0,35,-99.99,,,0.00,0,weatherlink.com 1.10,2013-07-19 07:46:00,
2013-07-19 01:01:00,67.7,39.0,29.88,WSW,248,6.0,-999.0,35,-99.99,,,0.00,0,weatherlink.com 1.10,2013-07-19 08:01:00,
2013-07-19 01:16:00,68.0,38.0,29.88,WSW,254,5.0,-999.0,34,-99.99,,,0.00,0,weatherlink.com 1.10,2013-07-19 08:16:00,
2013-07-19 01:31:00,67.7,37.0,29.87,SW,227,6.0,-999.0,33,-99.99,,,0.00,0,weatherlink.com 1.10,2013-07-19 08:31:00,
2013-07-19 01:46:00,67.3,37.0,29.87,WSW,249,6.0,-999.0,33,-99.99,,,0.00,0,weatherlink.com 1.10,2013-07-19 08:46:00,
2013-07-19 02:01:00,67.3,37.0,29.87,WSW,244,4.0,-999.0,33,-99.99,,,0.00,0,weatherlink.com 1.10,2013-07-19 09:01:00,
2013-07-19 02:16:00,66.7,37.0,29.86,West,269,0.0,-999.0,33,-99.99,,,0.00,0,weatherlink.com 1.10,2013-07-19 09:16:00,
2013-07-19 02:31:00,66.4,38.0,29.86,WSW,252,3.0,-999.0,35,-99.99,,,0.00,0,weatherlink.com 1.10,2013-07-19 09:31:00,
2013-07-19 02:46:00,66.3,38.0,29.86,WSW,246,4.0,-999.0,35,-99.99,,,0.00,0,weatherlink.com 1.10,2013-07-19 09:46:00,
2013-07-19 03:01:00,66.6,38.0,29.86,WSW,244,5.0,-999.0,35,-99.99,,,0.00,0,weatherlink.com 1.10,2013-07-19 10:01:00,
2013-07-19 03:16:00,66.9,38.0,29.86,WSW,238,4.0,-999.0,35,-99.99,,,0.00,0,weatherlink.com 1.10,2013-07-19 10:16:00,
2013-07-19 03:31:00,66.8,38.0,29.85,SW,236,4.0,-999.0,35,-99.99,,,0.00,0,weatherlink.com 1.10,2013-07-19 10:31:00,
2013-07-19 03:46:00,66.5,39.0,29.85,WSW,240,1.0,-999.0,36,-99.99,,,0.00,0,weatherlink.com 1.10,2013-07-19 10:46:00,
2013-07-19 04:01:00,66.2,39.0,29.85,SW,234,4.0,-999.0,37,-99.99,,,0.00,0,weatherlink.com 1.10,2013-07-19 11:01:00,
2013-07-19 04:16:00,65.8,39.0,29.85,WSW,240,5.0,-999.0,37,-99.99,,,0.00,0,weatherlink.com 1.10,2013-07-19 11:16:00,
2013-07-19 04:31:00,65.5,39.0,29.85,WSW,245,5.0,-999.0,38,-99.99,,,0.00,0,weatherlink.com 1.10,2013-07-19 11:31:00,
2013-07-19 04:46:00,65.6,38.0,29.85,WSW,245,4.0,-999.0,37,-99.99,,,0.00,0,weatherlink.com 1.10,2013-07-19 11:46:00,
2013-07-19 05:01:00,65.2,39.0,29.85,SW,230,5.0,-999.0,38,-99.99,,,0.00,0,weatherlink.com 1.10,2013-07-19 12:01:00,
2013-07-19 05:16:00,65.3,38.0,29.85,WSW,240,5.0,-999.0,37,-99.99,,,0.00,0,weatherlink.com 1.10,2013-07-19 12:16:00,
2013-07-19 05:31:00,65.6,38.0,29.85,WSW,238,5.0,-999.0,37,-99.99,,,0.00,0,weatherlink.com 1.10,2013-07-19 12:31:00,
2013-07-19 05:46:00,65.4,38.0,29.85,WSW,240,3.0,-999.0,37,-99.99,,,0.00,0,weatherlink.com 1.10,2013-07-19 12:46:00,
2013-07-19 06:01:00,64.7,38.0,29.86,WSW,246,5.0,-999.0,38,-99.99,,,0.00,5,weatherlink.com 1.10,2013-07-19 13:01:00,
2013-07-19 06:16:00,64.6,38.0,29.86,WSW,240,0.0,-999.0,38,-99.99,,,0.00,18,weatherlink.com 1.10,2013-07-19 13:16:00,
2013-07-19 06:31:00,64.9,39.0,29.86,SW,227,2.0,-999.0,39,-99.99,,,0.00,42,weatherlink.com 1.10,2013-07-19 13:31:00,
2013-07-19 06:46:00,66.0,40.0,29.86,WSW,240,3.0,-999.0,39,-99.99,,,0.00,77,weatherlink.com 1.10,2013-07-19 13:46:00,
2013-07-19 07:01:00,67.9,41.0,29.85,WSW,239,3.0,-999.0,37,-99.99,,,0.00,128,weatherlink.com 1.10,2013-07-19 14:01:00,
2013-07-19 07:17:00,70.0,42.0,29.85,West,267,0.0,-999.0,36,-99.99,,,0.00,183,weatherlink.com 1.10,2013-07-19 14:17:00,
2013-07-19 07:32:00,71.6,42.0,29.86,West,267,0.0,-999.0,34,-99.99,,,0.00,232,weatherlink.com 1.10,2013-07-19 14:32:00,
2013-07-19 07:47:00,73.1,41.0,29.86,WNW,288,3.0,-999.0,31,-99.99,,,0.00,283,weatherlink.com 1.10,2013-07-19 14:47:00,
2013-07-19 08:02:00,74.6,39.0,29.86,NW,313,0.0,-999.0,28,-99.99,,,0.00,323,weatherlink.com 1.10,2013-07-19 15:02:00,
2013-07-19 08:17:00,76.0,40.0,29.85,NNW,336,3.0,-999.0,27,-99.99,,,0.00,371,weatherlink.com 1.10,2013-07-19 15:17:00,
2013-07-19 08:32:00,77.3,40.0,29.85,WNW,303,3.0,-999.0,26,-99.99,,,0.00,413,weatherlink.com 1.10,2013-07-19 15:32:00,
2013-07-19 08:47:00,78.1,40.0,29.85,WNW,286,5.0,-999.0,26,-99.99,,,0.00,459,weatherlink.com 1.10,2013-07-19 15:47:00,
2013-07-19 09:02:00,79.2,40.0,29.85,NW,325,0.0,-999.0,25,-99.99,,,0.00,497,weatherlink.com 1.10,2013-07-19 16:02:00,
2013-07-19 09:17:00,80.4,41.0,29.84,NW,317,3.0,-999.0,25,-99.99,,,0.00,526,weatherlink.com 1.10,2013-07-19 16:17:00,
2013-07-19 09:32:00,82.0,41.0,29.84,NNW,332,4.0,-999.0,23,-99.99,,,0.00,559,weatherlink.com 1.10,2013-07-19 16:32:00,
2013-07-19 09:47:00,81.9,41.0,29.84,North,349,2.0,-999.0,23,-99.99,,,0.00,608,weatherlink.com 1.10,2013-07-19 16:47:00,
2013-07-19 10:02:00,82.7,40.0,29.83,NW,309,6.0,-999.0,22,-99.99,,,0.00,628,weatherlink.com 1.10,2013-07-19 17:02:00,
2013-07-19 10:17:00,83.9,40.0,29.83,North,355,3.0,-999.0,21,-99.99,,,0.00,700,weatherlink.com 1.10,2013-07-19 17:17:00,
2013-07-19 10:32:00,85.6,40.0,29.82,West,259,2.0,-999.0,20,-99.99,,,0.00,740,weatherlink.com 1.10,2013-07-19 17:32:00,
2013-07-19 10:47:00,85.5,40.0,29.83,NNW,342,2.0,-999.0,20,-99.99,,,0.00,752,weatherlink.com 1.10,2013-07-19 17:47:00,
2013-07-19 11:03:00,87.3,40.0,29.82,NW,315,9.0,-999.0,19,-99.99,,,0.00,779,weatherlink.com 1.10,2013-07-19 18:03:00,
2013-07-19 11:18:00,88.5,40.0,29.82,North,360,6.0,-999.0,18,-99.99,,,0.00,823,weatherlink.com 1.10,2013-07-19 18:18:00,
2013-07-19 11:33:00,88.3,40.0,29.82,NW,325,7.0,-999.0,18,-99.99,,,0.00,854,weatherlink.com 1.10,2013-07-19 18:33:00,
2013-07-19 11:48:00,88.8,40.0,29.82,NW,313,8.0,-999.0,18,-99.99,,,0.00,879,weatherlink.com 1.10,2013-07-19 18:48:00,
2013-07-19 12:03:00,89.9,40.0,29.82,NNW,332,9.0,-999.0,17,-99.99,,,0.00,891,weatherlink.com 1.10,2013-07-19 19:03:00,
2013-07-19 12:18:00,91.3,39.0,29.81,NNW,336,7.0,-999.0,16,-99.99,,,0.00,905,weatherlink.com 1.10,2013-07-19 19:18:00,
2013-07-19 12:33:00,90.6,39.0,29.81,NNW,340,7.0,-999.0,16,-99.99,,,0.00,911,weatherlink.com 1.10,2013-07-19 19:33:00,
2013-07-19 12:48:00,90.3,40.0,29.81,North,5,10.0,-999.0,17,-99.99,,,0.00,914,weatherlink.com 1.10,2013-07-19 19:48:00,
2013-07-19 13:03:00,90.4,38.0,29.80,NNW,327,6.0,-999.0,16,-99.99,,,0.00,918,weatherlink.com 1.10,2013-07-19 20:03:00,
2013-07-19 13:18:00,90.7,39.0,29.80,NW,323,9.0,-999.0,16,-99.99,,,0.00,914,weatherlink.com 1.10,2013-07-19 20:18:00,
2013-07-19 13:33:00,91.5,39.0,29.80,NNW,338,7.0,-999.0,16,-99.99,,,0.00,907,weatherlink.com 1.10,2013-07-19 20:33:00,
2013-07-19 13:48:00,91.0,40.0,29.79,NNW,336,2.0,-999.0,17,-99.99,,,0.00,896,weatherlink.com 1.10,2013-07-19 20:48:00,
2013-07-19 14:03:00,91.1,41.0,29.79,NW,319,4.0,-999.0,17,-99.99,,,0.00,872,weatherlink.com 1.10,2013-07-19 21:03:00,
2013-07-19 14:18:00,91.6,41.0,29.79,NW,325,10.0,-999.0,17,-99.99,,,0.00,867,weatherlink.com 1.10,2013-07-19 21:18:00,
2013-07-19 14:33:00,92.5,40.0,29.78,NW,325,11.0,-999.0,16,-99.99,,,0.00,830,weatherlink.com 1.10,2013-07-19 21:33:00,
2013-07-19 14:48:00,91.5,41.0,29.78,NW,317,4.0,-999.0,17,-99.99,,,0.00,803,weatherlink.com 1.10,2013-07-19 21:48:00,
2013-07-19 15:03:00,92.5,40.0,29.77,NNW,342,10.0,-999.0,16,-99.99,,,0.00,775,weatherlink.com 1.10,2013-07-19 22:03:00,
2013-07-19 15:18:00,91.3,41.0,29.77,NNW,336,13.0,-999.0,17,-99.99,,,0.00,740,weatherlink.com 1.10,2013-07-19 22:18:00,
2013-07-19 15:33:00,90.8,40.0,29.77,NNW,327,9.0,-999.0,17,-99.99,,,0.00,700,weatherlink.com 1.10,2013-07-19 22:33:00,
2013-07-19 15:48:00,91.0,40.0,29.77,NNW,329,13.0,-999.0,17,-99.99,,,0.00,659,weatherlink.com 1.10,2013-07-19 22:48:00,
2013-07-19 16:03:00,90.7,40.0,29.76,NW,317,14.0,-999.0,17,-99.99,,,0.00,624,weatherlink.com 1.10,2013-07-19 23:03:00,
2013-07-19 16:18:00,90.9,40.0,29.76,NW,304,8.0,-999.0,17,-99.99,,,0.00,577,weatherlink.com 1.10,2013-07-19 23:18:00,
2013-07-19 16:33:00,90.1,41.0,29.76,WNW,298,6.0,-999.0,18,-99.99,,,0.00,529,weatherlink.com 1.10,2013-07-19 23:33:00,
2013-07-19 16:48:00,89.7,41.0,29.76,WNW,295,5.0,-999.0,18,-99.99,,,0.00,483,weatherlink.com 1.10,2013-07-19 23:48:00,
2013-07-19 17:03:00,89.1,40.0,29.76,NW,326,9.0,-999.0,18,-99.99,,,0.00,446,weatherlink.com 1.10,2013-07-20 00:03:00,
2013-07-19 17:18:00,88.3,41.0,29.75,West,260,1.0,-999.0,19,-99.99,,,0.00,406,weatherlink.com 1.10,2013-07-20 00:18:00,
2013-07-19 17:33:00,88.3,41.0,29.75,WSW,239,11.0,-999.0,19,-99.99,,,0.00,359,weatherlink.com 1.10,2013-07-20 00:33:00,
2013-07-19 17:48:00,86.9,41.0,29.75,West,271,7.0,-999.0,20,-99.99,,,0.00,295,weatherlink.com 1.10,2013-07-20 00:48:00,
2013-07-19 18:03:00,85.7,41.0,29.75,NW,313,8.0,-999.0,21,-99.99,,,0.00,234,weatherlink.com 1.10,2013-07-20 01:03:00,
2013-07-19 18:18:00,84.9,42.0,29.75,WNW,283,8.0,-999.0,22,-99.99,,,0.00,197,weatherlink.com 1.10,2013-07-20 01:18:00,
2013-07-19 18:33:00,84.1,42.0,29.75,WNW,285,5.0,-999.0,23,-99.99,,,0.00,155,weatherlink.com 1.10,2013-07-20 01:33:00,
2013-07-19 18:48:00,83.5,42.0,29.75,WNW,288,8.0,-999.0,23,-99.99,,,0.00,116,weatherlink.com 1.10,2013-07-20 01:48:00,
2013-07-19 19:03:00,82.5,42.0,29.76,WNW,286,6.0,-999.0,24,-99.99,,,0.00,81,weatherlink.com 1.10,2013-07-20 02:03:00,
2013-07-19 19:18:00,81.8,43.0,29.76,WNW,293,5.0,-999.0,25,-99.99,,,0.00,39,weatherlink.com 1.10,2013-07-20 02:18:00,
2013-07-19 19:33:00,81.0,43.0,29.76,WSW,257,10.0,-999.0,26,-99.99,,,0.00,26,weatherlink.com 1.10,2013-07-20 02:33:00,
2013-07-19 19:48:00,80.0,42.0,29.77,West,267,7.0,-999.0,26,-99.99,,,0.00,14,weatherlink.com 1.10,2013-07-20 02:48:00,
2013-07-19 20:04:00,79.2,42.0,29.77,West,261,5.0,-999.0,27,-99.99,,,0.00,5,weatherlink.com 1.10,2013-07-20 03:04:00,
2013-07-19 20:19:00,78.3,42.0,29.77,West,267,6.0,-999.0,27,-99.99,,,0.00,0,weatherlink.com 1.10,2013-07-20 03:19:00,
2013-07-19 20:34:00,77.5,42.0,29.77,WNW,283,3.0,-999.0,28,-99.99,,,0.00,0,weatherlink.com 1.10,2013-07-20 03:34:00,
2013-07-19 20:49:00,76.5,42.0,29.77,West,262,2.0,-999.0,29,-99.99,,,0.00,0,weatherlink.com 1.10,2013-07-20 03:49:00,
2013-07-19 21:04:00,75.9,42.0,29.77,WSW,256,4.0,-999.0,30,-99.99,,,0.00,0,weatherlink.com 1.10,2013-07-20 04:04:00,
2013-07-19 21:19:00,75.2,42.0,29.78,WNW,283,3.0,-999.0,31,-99.99,,,0.00,0,weatherlink.com 1.10,2013-07-20 04:19:00,
2013-07-19 21:34:00,75.1,42.0,29.79,West,262,4.0,-999.0,31,-99.99,,,0.00,0,weatherlink.com 1.10,2013-07-20 04:34:00,
2013-07-19 21:49:00,74.4,43.0,29.79,WSW,257,6.0,-999.0,32,-99.99,,,0.00,0,weatherlink.com 1.10,2013-07-20 04:49:00,
2013-07-19 22:04:00,73.7,42.0,29.79,WSW,250,4.0,-999.0,32,-99.99,,,0.00,0,weatherlink.com 1.10,2013-07-20 05:04:00,
2013-07-19 22:19:00,73.0,41.0,29.79,WSW,258,6.0,-999.0,32,-99.99,,,0.00,0,weatherlink.com 1.10,2013-07-20 05:19:00,
2013-07-19 22:34:00,72.7,42.0,29.79,WSW,253,6.0,-999.0,33,-99.99,,,0.00,0,weatherlink.com 1.10,2013-07-20 05:34:00,
2013-07-19 22:49:00,72.6,41.0,29.79,West,259,6.0,-999.0,32,-99.99,,,0.00,0,weatherlink.com 1.10,2013-07-20 05:49:00,
2013-07-19 23:04:00,72.6,41.0,29.79,WSW,254,7.0,-999.0,32,-99.99,,,0.00,0,weatherlink.com 1.10,2013-07-20 06:04:00,
2013-07-19 23:19:00,72.0,40.0,29.78,WSW,253,7.0,-999.0,32,-99.99,,,0.00,0,weatherlink.com 1.10,2013-07-20 06:19:00,
2013-07-19 23:34:00,71.9,40.0,29.78,WSW,246,6.0,-999.0,32,-99.99,,,0.00,0,weatherlink.com 1.10,2013-07-20 06:34:00,
2013-07-19 23:49:00,72.1,40.0,29.78,WSW,248,2.0,-999.0,31,-99.99,,,0.00,0,weatherlink.com 1.10,2013-07-20 06:49:00,